createdAt,value
2023-12-09T00:00:55.212Z,12.53
2023-12-09T00:03:22.322Z,13.53
2023-12-09T00:05:49.565Z,12.83
2023-12-09T00:08:16.829Z,12.27
2023-12-09T00:10:43.905Z,11.83
2023-12-09T00:13:11.923Z,13.47
2023-12-09T00:15:39.078Z,13.70
2023-12-09T00:18:06.360Z,13.27
2023-12-09T00:20:33.411Z,13.80
2023-12-09T00:23:00.876Z,13.40
2023-12-09T00:25:28.255Z,13.90
2023-12-09T00:27:55.664Z,14.93
2023-12-09T00:30:23.195Z,13.77
2023-12-09T00:32:51.173Z,13.90
2023-12-09T00:35:18.906Z,14.80
2023-12-09T00:37:46.371Z,13.03
2023-12-09T00:40:14.198Z,15.30
2023-12-09T00:42:41.700Z,13.70
2023-12-09T00:45:09.292Z,15.63
2023-12-09T00:47:36.873Z,15.77
2023-12-09T00:50:04.361Z,15.83
2023-12-09T00:52:31.788Z,14.73
2023-12-09T00:54:59.406Z,15.43
2023-12-09T00:57:26.895Z,15.20
2023-12-09T00:59:54.533Z,15.20
2023-12-09T01:02:21.955Z,14.53
2023-12-09T01:04:49.041Z,14.80
2023-12-09T01:07:16.087Z,15.70
2023-12-09T01:09:43.252Z,15.20
2023-12-09T01:12:10.841Z,15.27
2023-12-09T01:14:37.857Z,17.77
2023-12-09T01:17:05.632Z,14.43
2023-12-09T01:19:32.674Z,14.73
2023-12-09T01:22:00.235Z,13.43
2023-12-09T01:24:27.694Z,13.10
2023-12-09T01:26:54.836Z,13.27
2023-12-09T01:29:21.856Z,13.30
2023-12-09T01:31:48.912Z,13.33
2023-12-09T01:34:15.990Z,12.90
2023-12-09T01:36:43.271Z,13.67
2023-12-09T01:39:10.460Z,13.20
2023-12-09T01:41:38.646Z,13.03
2023-12-09T01:44:06.268Z,13.27
2023-12-09T01:46:35.296Z,14.33
2023-12-09T01:49:02.529Z,13.37
2023-12-09T01:51:30.274Z,13.03
2023-12-09T01:53:57.443Z,14.67
2023-12-09T01:56:24.670Z,13.90
2023-12-09T01:58:52.709Z,14.73
2023-12-09T02:01:19.863Z,14.93
2023-12-09T02:03:47.026Z,14.40
2023-12-09T02:06:14.168Z,14.43
2023-12-09T02:08:41.222Z,14.70
2023-12-09T02:11:36.725Z,14.17
2023-12-09T02:14:08.650Z,15.13
2023-12-09T02:16:44.737Z,13.43
2023-12-09T02:19:15.126Z,13.13
2023-12-09T02:22:04.782Z,14.10
2023-12-09T02:24:32.493Z,14.40
2023-12-09T02:27:05.698Z,13.60
2023-12-09T02:29:35.066Z,13.10
2023-12-09T02:32:07.487Z,13.23
2023-12-09T02:34:38.616Z,12.93
2023-12-09T02:37:06.969Z,13.57
2023-12-09T02:39:34.607Z,12.40
2023-12-09T02:42:03.048Z,14.07
2023-12-09T02:44:30.607Z,12.20
2023-12-09T02:46:58.636Z,11.87
2023-12-09T02:49:26.040Z,12.50
2023-12-09T02:51:53.505Z,13.27
2023-12-09T02:54:20.982Z,12.93
2023-12-09T02:56:48.487Z,13.07
2023-12-09T02:59:15.893Z,12.53
2023-12-09T03:01:43.447Z,12.40
2023-12-09T03:04:11.164Z,14.50
2023-12-09T03:06:38.619Z,13.83
2023-12-09T03:09:06.129Z,13.30
2023-12-09T03:11:33.557Z,14.97
2023-12-09T03:14:00.920Z,13.77
2023-12-09T03:16:28.357Z,13.00
2023-12-09T03:18:55.514Z,13.10
2023-12-09T03:21:22.676Z,12.63
2023-12-09T03:23:49.685Z,13.20
2023-12-09T03:26:20.703Z,14.27
2023-12-09T03:28:47.931Z,12.57
2023-12-09T03:31:16.202Z,12.43
2023-12-09T03:33:43.910Z,13.10
2023-12-09T03:36:14.587Z,12.87
2023-12-09T03:38:42.698Z,14.10
2023-12-09T03:41:09.955Z,13.97
2023-12-09T03:43:37.167Z,12.40
2023-12-09T03:46:04.534Z,12.03
2023-12-09T03:48:32.857Z,12.27
2023-12-09T03:51:00.393Z,12.93
2023-12-09T03:53:28.813Z,13.07
2023-12-09T03:55:55.882Z,13.23
2023-12-09T03:58:23.869Z,13.17
2023-12-09T04:00:51.689Z,12.07
2023-12-09T04:03:20.456Z,13.33
2023-12-09T04:05:47.575Z,13.07
2023-12-09T04:08:14.654Z,12.57
2023-12-09T04:10:41.782Z,13.43
2023-12-09T04:13:09.213Z,12.67
2023-12-09T04:15:36.721Z,13.70
2023-12-09T04:18:04.457Z,12.60
2023-12-09T04:20:31.958Z,14.27
2023-12-09T04:22:59.515Z,13.40
2023-12-09T04:25:26.957Z,13.07
2023-12-09T04:27:55.876Z,13.37
2023-12-09T04:30:23.484Z,13.43
2023-12-09T04:32:51.022Z,13.67
2023-12-09T04:35:18.484Z,14.50
2023-12-09T04:37:45.906Z,12.57
2023-12-09T04:40:15.833Z,14.00
2023-12-09T04:42:44.633Z,13.80
2023-12-09T04:45:12.263Z,13.73
2023-12-09T04:47:39.977Z,14.20
2023-12-09T04:50:12.273Z,14.70
2023-12-09T04:52:39.859Z,14.83
2023-12-09T04:55:09.511Z,14.27
2023-12-09T04:57:37.058Z,14.57
2023-12-09T05:00:06.769Z,12.80
2023-12-09T05:02:34.223Z,14.47
2023-12-09T05:05:01.608Z,14.63
2023-12-09T05:07:29.632Z,14.83
2023-12-09T05:09:57.081Z,14.37
2023-12-09T05:12:24.824Z,14.10
2023-12-09T05:14:52.794Z,14.23
2023-12-09T05:17:20.242Z,13.70
2023-12-09T05:19:47.667Z,14.80
2023-12-09T05:22:16.105Z,13.73
2023-12-09T05:24:43.905Z,13.87
2023-12-09T05:27:11.663Z,14.63
2023-12-09T05:29:40.854Z,13.70
2023-12-09T05:32:10.221Z,14.07
2023-12-09T05:34:38.142Z,15.37
2023-12-09T05:37:05.513Z,15.40
2023-12-09T05:39:32.590Z,13.67
2023-12-09T05:41:59.650Z,14.40
2023-12-09T05:44:26.694Z,14.90
2023-12-09T05:46:53.722Z,14.43
2023-12-09T05:49:20.918Z,14.57
2023-12-09T05:51:48.028Z,13.77
2023-12-09T05:54:15.088Z,14.90
2023-12-09T05:56:51.452Z,13.70
2023-12-09T05:59:18.512Z,13.80
2023-12-09T06:01:45.505Z,14.00
2023-12-09T06:04:12.747Z,12.03
2023-12-09T06:06:39.856Z,11.77
2023-12-09T06:09:07.834Z,13.10
2023-12-09T06:11:34.971Z,11.87
2023-12-09T06:14:02.165Z,13.23
2023-12-09T06:16:29.182Z,12.80
2023-12-09T06:18:56.358Z,14.67
2023-12-09T06:21:24.613Z,13.77
2023-12-09T06:23:52.422Z,12.10
2023-12-09T06:26:20.412Z,13.27
2023-12-09T06:28:47.488Z,12.60
2023-12-09T06:31:14.492Z,12.90
2023-12-09T06:33:41.799Z,13.43
2023-12-09T06:36:09.066Z,13.57
2023-12-09T06:38:41.014Z,12.77
2023-12-09T06:41:08.979Z,12.73
2023-12-09T06:43:36.082Z,13.07
2023-12-09T06:46:03.344Z,14.93
2023-12-09T06:48:30.521Z,13.23
2023-12-09T06:50:57.951Z,13.57
2023-12-09T06:53:24.983Z,13.40
2023-12-09T06:55:52.097Z,12.77
2023-12-09T06:58:19.119Z,13.87
2023-12-09T07:00:47.950Z,15.13
2023-12-09T07:03:15.301Z,14.40
2023-12-09T07:05:42.414Z,15.57
2023-12-09T07:08:12.536Z,15.20
2023-12-09T07:10:39.594Z,15.93
2023-12-09T07:13:06.627Z,14.97
2023-12-09T07:15:33.667Z,14.83
2023-12-09T07:18:01.215Z,14.80
2023-12-09T07:20:28.357Z,14.87
2023-12-09T07:22:55.373Z,14.03
2023-12-09T07:25:25.552Z,13.97
2023-12-09T07:27:52.557Z,14.00
2023-12-09T07:30:19.740Z,14.53
2023-12-09T07:32:46.889Z,15.60
2023-12-09T07:35:14.486Z,15.60
2023-12-09T07:37:42.814Z,14.97
2023-12-09T07:40:13.149Z,14.70
2023-12-09T07:42:40.360Z,14.77
2023-12-09T07:45:08.278Z,14.53
2023-12-09T07:47:35.318Z,15.23
2023-12-09T07:50:02.359Z,14.97
2023-12-09T07:52:29.644Z,15.73
2023-12-09T07:54:56.995Z,15.97
2023-12-09T07:57:24.071Z,15.60
2023-12-09T07:59:51.109Z,14.73
2023-12-09T08:02:18.238Z,15.53
2023-12-09T08:04:45.296Z,15.57
2023-12-09T08:07:12.604Z,16.37
2023-12-09T08:09:39.678Z,15.53
2023-12-09T08:12:07.383Z,15.40
2023-12-09T08:14:34.995Z,15.53
2023-12-09T08:17:02.195Z,16.17
2023-12-09T08:19:29.298Z,14.90
2023-12-09T08:21:56.403Z,15.20
2023-12-09T08:24:24.085Z,16.13
2023-12-09T08:26:52.003Z,16.67
2023-12-09T08:29:19.056Z,16.07
2023-12-09T08:31:50.205Z,16.27
2023-12-09T08:34:18.048Z,15.53
2023-12-09T08:36:45.633Z,14.80
2023-12-09T08:39:12.749Z,15.10
2023-12-09T08:41:39.808Z,14.07
2023-12-09T08:44:07.822Z,12.50
2023-12-09T08:46:34.848Z,12.37
2023-12-09T08:49:02.005Z,11.93
2023-12-09T08:51:29.087Z,13.90
2023-12-09T08:53:56.794Z,11.77
2023-12-09T08:56:24.197Z,12.70
2023-12-09T08:58:51.303Z,12.40
2023-12-09T09:01:18.331Z,12.60
2023-12-09T09:03:45.757Z,10.63
2023-12-09T09:06:12.933Z,11.27
2023-12-09T09:08:39.988Z,12.13
2023-12-09T09:11:07.248Z,11.33
2023-12-09T09:13:34.276Z,11.70
2023-12-09T09:16:01.298Z,11.47
2023-12-09T09:18:28.954Z,11.63
2023-12-09T09:20:56.116Z,10.60
2023-12-09T09:23:23.223Z,9.27
2023-12-09T09:25:50.230Z,8.97
2023-12-09T09:28:17.269Z,10.53
2023-12-09T09:30:44.659Z,9.20
2023-12-09T09:33:12.001Z,8.77
2023-12-09T09:35:39.045Z,9.57
2023-12-09T09:38:06.218Z,9.83
2023-12-09T09:40:33.206Z,8.17
2023-12-09T09:43:06.140Z,7.90
2023-12-09T09:45:33.698Z,8.07
2023-12-09T09:48:12.087Z,7.53
2023-12-09T09:50:46.742Z,7.77
2023-12-09T09:53:18.887Z,7.37
2023-12-09T09:55:47.739Z,7.23
2023-12-09T09:58:17.395Z,6.80
2023-12-09T10:00:45.269Z,6.23
2023-12-09T10:03:13.214Z,7.27
2023-12-09T10:05:40.693Z,6.80
2023-12-09T10:08:08.129Z,6.37
2023-12-09T10:10:36.491Z,6.80
2023-12-09T10:13:03.963Z,7.40
2023-12-09T10:15:33.169Z,7.63
2023-12-09T10:18:05.079Z,7.57
2023-12-09T10:20:35.529Z,7.87
2023-12-09T10:23:02.982Z,8.67
2023-12-09T10:25:30.654Z,7.80
2023-12-09T10:27:58.977Z,7.80
2023-12-09T10:30:26.602Z,8.17
2023-12-09T10:32:54.509Z,8.00
2023-12-09T10:35:22.165Z,8.60
2023-12-09T10:37:50.922Z,9.00
2023-12-09T10:40:22.353Z,8.60
2023-12-09T10:42:51.828Z,9.23
2023-12-09T10:45:19.378Z,9.20
2023-12-09T10:47:46.890Z,8.30
2023-12-09T10:50:15.038Z,8.37
2023-12-09T10:52:42.050Z,8.33
2023-12-09T10:55:09.332Z,8.47
2023-12-09T10:57:38.784Z,7.97
2023-12-09T11:00:12.659Z,8.93
2023-12-09T11:02:45.463Z,7.50
2023-12-09T11:05:14.152Z,8.57
2023-12-09T11:07:42.173Z,8.43
2023-12-09T11:10:10.631Z,7.57
2023-12-09T11:12:37.852Z,8.03
2023-12-09T11:15:20.716Z,8.23
2023-12-09T11:17:54.465Z,8.33
2023-12-09T11:20:22.696Z,8.57
2023-12-09T11:22:49.967Z,9.83
2023-12-09T11:25:26.628Z,10.10
2023-12-09T11:27:54.922Z,8.43
2023-12-09T11:30:56.969Z,9.90
2023-12-09T11:33:25.433Z,9.10
2023-12-09T11:35:56.617Z,10.07
2023-12-09T11:38:24.556Z,9.47
2023-12-09T11:40:52.609Z,9.57
2023-12-09T11:43:19.997Z,8.53
2023-12-09T11:45:48.077Z,9.30
2023-12-09T11:48:16.544Z,9.37
2023-12-09T11:50:43.988Z,9.00
2023-12-09T11:53:11.546Z,9.20
2023-12-09T11:55:40.672Z,9.20
2023-12-09T11:58:07.700Z,8.33
2023-12-09T12:00:35.557Z,8.47
2023-12-09T12:03:04.237Z,8.57
2023-12-09T12:05:32.868Z,8.43
2023-12-09T12:07:59.926Z,8.10
2023-12-09T12:10:26.992Z,7.43
2023-12-09T12:12:54.125Z,8.03
2023-12-09T12:15:21.408Z,8.77
2023-12-09T12:17:50.179Z,9.03
2023-12-09T12:20:17.433Z,8.17
2023-12-09T12:22:44.584Z,8.53
2023-12-09T12:25:12.192Z,8.80
2023-12-09T12:27:46.404Z,8.93
2023-12-09T12:30:17.189Z,8.13
2023-12-09T12:32:44.994Z,8.07
2023-12-09T12:35:12.444Z,8.83
2023-12-09T12:37:39.651Z,8.43
2023-12-09T12:40:07.696Z,9.03
2023-12-09T12:42:35.895Z,8.83
2023-12-09T12:45:07.825Z,8.97
2023-12-09T12:47:34.977Z,9.47
2023-12-09T12:50:02.065Z,9.37
2023-12-09T12:52:30.149Z,9.07
2023-12-09T12:54:58.635Z,9.83
2023-12-09T12:57:26.159Z,9.90
2023-12-09T12:59:58.859Z,9.87
2023-12-09T13:02:30.628Z,9.23
2023-12-09T13:04:58.778Z,9.47
2023-12-09T13:07:27.594Z,10.07
2023-12-09T13:09:54.713Z,11.87
2023-12-09T13:12:22.291Z,9.77
2023-12-09T13:14:49.403Z,10.63
2023-12-09T13:17:16.654Z,9.47
2023-12-09T13:19:43.844Z,10.47
2023-12-09T13:22:11.349Z,10.43
2023-12-09T13:24:38.505Z,9.67
2023-12-09T13:27:05.992Z,8.37
2023-12-09T13:29:33.517Z,8.40
2023-12-09T13:32:03.537Z,8.40
2023-12-09T13:34:31.372Z,8.00
2023-12-09T13:36:58.851Z,8.17
2023-12-09T13:39:26.982Z,7.57
2023-12-09T13:41:54.615Z,5.53
2023-12-09T13:44:22.067Z,5.40
2023-12-09T13:46:49.605Z,6.60
2023-12-09T13:49:17.355Z,5.30
2023-12-09T13:51:45.250Z,4.90
2023-12-09T13:54:13.553Z,5.23
2023-12-09T13:56:41.255Z,4.73
2023-12-09T13:59:08.767Z,4.10
2023-12-09T14:01:36.594Z,4.73
2023-12-09T14:04:06.315Z,3.77
2023-12-09T14:06:33.892Z,4.10
2023-12-09T14:09:01.506Z,3.47
2023-12-09T14:11:28.672Z,3.90
2023-12-09T14:13:56.217Z,3.50
2023-12-09T14:16:24.120Z,3.50
2023-12-09T14:18:51.755Z,3.50
2023-12-09T14:21:19.254Z,3.27
2023-12-09T14:23:46.716Z,2.80
2023-12-09T14:26:14.251Z,3.27
2023-12-09T14:28:42.246Z,3.17
2023-12-09T14:31:09.754Z,2.43
2023-12-09T14:33:39.551Z,2.53
2023-12-09T14:36:07.819Z,2.70
2023-12-09T14:38:35.455Z,2.50
2023-12-09T14:41:02.942Z,2.40
2023-12-09T14:43:30.419Z,2.50
2023-12-09T14:45:57.896Z,2.13
2023-12-09T14:48:25.711Z,2.33
2023-12-09T14:50:54.870Z,2.10
2023-12-09T14:53:23.322Z,2.10
2023-12-09T14:55:50.865Z,2.27
2023-12-09T14:58:19.364Z,2.13
2023-12-09T15:00:50.839Z,2.33
2023-12-09T15:03:18.956Z,2.53
2023-12-09T15:05:46.478Z,2.23
2023-12-09T15:08:14.290Z,2.57
2023-12-09T15:10:41.758Z,2.43
2023-12-09T15:13:09.268Z,2.30
2023-12-09T15:15:36.834Z,2.40
2023-12-09T15:18:05.212Z,2.10
2023-12-09T15:20:32.801Z,2.40
2023-12-09T15:23:00.283Z,2.60
2023-12-09T15:25:27.728Z,1.60
2023-12-09T15:27:55.204Z,2.20
2023-12-09T15:30:23.612Z,1.83
2023-12-09T15:32:51.186Z,1.87
2023-12-09T15:35:18.642Z,1.87
2023-12-09T15:37:46.135Z,1.47
2023-12-09T15:40:16.969Z,2.33
2023-12-09T15:42:44.640Z,2.50
2023-12-09T15:45:12.432Z,2.20
2023-12-09T15:47:40.050Z,2.20
2023-12-09T15:50:08.745Z,1.93
2023-12-09T15:52:36.266Z,2.07
2023-12-09T15:55:03.954Z,2.03
2023-12-09T15:57:31.677Z,1.97
2023-12-09T15:59:59.175Z,2.20
2023-12-09T16:02:28.297Z,1.80
2023-12-09T16:04:55.590Z,1.80
2023-12-09T16:07:22.791Z,2.13
2023-12-09T16:09:53.037Z,2.07
2023-12-09T16:12:26.093Z,2.13
2023-12-09T16:14:55.232Z,2.77
2023-12-09T16:17:22.973Z,2.10
2023-12-09T16:19:50.712Z,2.30
2023-12-09T16:22:18.055Z,2.10
2023-12-09T16:24:47.267Z,1.83
2023-12-09T16:27:15.132Z,1.73
2023-12-09T16:29:42.295Z,1.50
2023-12-09T16:32:11.814Z,1.80
2023-12-09T16:34:39.492Z,1.37
2023-12-09T16:37:07.075Z,1.90
2023-12-09T16:39:34.578Z,2.40
2023-12-09T16:42:01.761Z,2.17
2023-12-09T16:44:29.243Z,1.60
2023-12-09T16:46:56.748Z,1.30
2023-12-09T16:49:24.913Z,1.70
2023-12-09T16:51:52.534Z,1.90
2023-12-09T16:54:21.999Z,1.70
2023-12-09T16:56:49.509Z,1.90
2023-12-09T16:59:16.811Z,1.70
2023-12-09T17:01:44.315Z,1.50
2023-12-09T17:04:11.887Z,1.77
2023-12-09T17:06:40.022Z,1.50
2023-12-09T17:09:08.390Z,1.47
2023-12-09T17:11:35.916Z,1.40
2023-12-09T17:14:04.412Z,1.47
2023-12-09T17:16:31.884Z,1.20
2023-12-09T17:18:59.429Z,1.67
2023-12-09T17:21:27.009Z,1.43
2023-12-09T17:23:54.811Z,1.23
2023-12-09T17:26:22.380Z,1.03
2023-12-09T17:28:49.896Z,1.30
2023-12-09T17:31:17.377Z,1.07
2023-12-09T17:33:45.213Z,1.10
2023-12-09T17:36:12.843Z,1.20
2023-12-09T17:38:41.897Z,1.27
2023-12-09T17:41:09.487Z,1.03
2023-12-09T17:43:37.247Z,0.80
2023-12-09T17:46:04.944Z,0.87
2023-12-09T17:48:32.576Z,0.90
2023-12-09T17:51:00.247Z,0.87
2023-12-09T17:53:27.708Z,0.83
2023-12-09T17:55:56.783Z,0.70
2023-12-09T17:58:23.905Z,0.57
2023-12-09T18:00:51.488Z,0.60
2023-12-09T18:03:19.820Z,0.63
2023-12-09T18:05:47.513Z,0.63
2023-12-09T18:08:15.024Z,0.60
2023-12-09T18:10:42.138Z,0.73
2023-12-09T18:13:10.265Z,0.80
2023-12-09T18:15:37.544Z,0.60
2023-12-09T18:18:05.186Z,0.87
2023-12-09T18:20:32.683Z,1.07
2023-12-09T18:23:00.758Z,0.90
2023-12-09T18:25:30.908Z,0.70
2023-12-09T18:27:58.630Z,0.70
2023-12-09T18:30:26.387Z,0.83
2023-12-09T18:32:56.228Z,0.73
2023-12-09T18:35:23.774Z,0.70
2023-12-09T18:37:52.139Z,0.60
2023-12-09T18:40:21.933Z,0.70
2023-12-09T18:42:52.085Z,0.50
2023-12-09T18:45:20.070Z,0.53
2023-12-09T18:47:47.631Z,0.60
2023-12-09T18:50:15.496Z,0.50
2023-12-09T18:52:43.107Z,0.60
2023-12-09T18:55:10.704Z,0.53
2023-12-09T18:57:38.497Z,0.60
2023-12-09T19:00:07.544Z,0.60
2023-12-09T19:02:34.949Z,0.53
2023-12-09T19:05:03.239Z,0.50
2023-12-09T19:07:31.468Z,0.53
2023-12-09T19:09:59.993Z,0.60
2023-12-09T19:12:28.990Z,0.60
2023-12-09T19:14:56.688Z,0.70
2023-12-09T19:17:24.871Z,0.50
2023-12-09T19:19:52.418Z,0.60
2023-12-09T19:22:19.945Z,0.60
2023-12-09T19:24:47.882Z,0.40
2023-12-09T19:27:15.507Z,0.50
2023-12-09T19:29:44.244Z,0.50
2023-12-09T19:32:13.499Z,0.40
2023-12-09T19:34:41.566Z,0.50
2023-12-09T19:37:09.189Z,0.50
2023-12-09T19:39:36.674Z,0.47
2023-12-09T19:42:04.232Z,0.30
2023-12-09T19:44:31.707Z,0.23
2023-12-09T19:46:59.675Z,0.30
2023-12-09T19:49:27.427Z,0.50
2023-12-09T19:51:55.495Z,0.43
2023-12-09T19:54:24.728Z,0.30
2023-12-09T19:56:53.406Z,0.10
2023-12-09T19:59:21.108Z,0.10
2023-12-09T20:01:48.743Z,0.30
2023-12-09T20:04:17.430Z,0.30
2023-12-09T20:06:45.151Z,0.30
2023-12-09T20:09:12.745Z,0.20
2023-12-09T20:11:40.236Z,0.20
2023-12-09T20:14:07.697Z,0.20
2023-12-09T20:16:35.106Z,0.20
2023-12-09T20:19:06.695Z,0.30
2023-12-09T20:21:36.261Z,0.27
2023-12-09T20:24:03.452Z,0.10
2023-12-09T20:26:31.775Z,0.10
2023-12-09T20:28:58.868Z,0.00
2023-12-09T20:31:26.425Z,0.10
2023-12-09T20:33:54.018Z,0.10
2023-12-09T20:36:22.825Z,0.10
2023-12-09T20:38:50.283Z,0.10
2023-12-09T20:41:17.820Z,0.10
2023-12-09T20:43:45.252Z,0.37
2023-12-09T20:46:12.724Z,0.20
2023-12-09T20:48:40.241Z,0.30
2023-12-09T20:51:08.965Z,0.30
2023-12-09T20:53:36.595Z,0.20
2023-12-09T20:56:05.618Z,0.20
2023-12-09T20:58:32.829Z,0.20
2023-12-09T21:01:00.441Z,0.20
2023-12-09T21:03:28.100Z,0.40
2023-12-09T21:05:55.931Z,0.10
2023-12-09T21:08:23.353Z,0.30
2023-12-09T21:10:50.873Z,0.30
2023-12-09T21:13:18.024Z,0.20
2023-12-09T21:15:45.485Z,0.30
2023-12-09T21:18:13.281Z,0.20
2023-12-09T21:20:42.460Z,0.30
2023-12-09T21:23:09.950Z,0.30
2023-12-09T21:25:37.477Z,0.30
2023-12-09T21:28:07.396Z,0.30
2023-12-09T21:30:36.302Z,0.30
2023-12-09T21:33:04.972Z,0.20
2023-12-09T21:35:32.542Z,0.20
2023-12-09T21:38:00.043Z,0.30
2023-12-09T21:40:27.791Z,0.23
2023-12-09T21:42:55.475Z,0.43
2023-12-09T21:45:23.016Z,0.30
2023-12-09T21:47:55.126Z,0.20
2023-12-09T21:50:23.901Z,0.30
2023-12-09T21:52:51.559Z,0.30
2023-12-09T21:55:21.055Z,0.40
2023-12-09T21:57:48.613Z,0.30
2023-12-09T22:00:16.701Z,0.50
2023-12-09T22:02:44.585Z,0.40
2023-12-09T22:05:12.222Z,0.40
2023-12-09T22:07:39.719Z,0.30
2023-12-09T22:10:07.591Z,0.20
2023-12-09T22:12:35.887Z,0.30
2023-12-09T22:15:05.566Z,0.50
2023-12-09T22:17:33.177Z,0.33
2023-12-09T22:20:00.737Z,0.47
2023-12-09T22:22:32.369Z,0.40
2023-12-09T22:25:05.688Z,0.40
2023-12-09T22:27:33.265Z,0.67
2023-12-09T22:30:00.789Z,0.40
2023-12-09T22:32:28.500Z,0.60
2023-12-09T22:34:56.245Z,0.43
2023-12-09T22:37:23.774Z,0.30
2023-12-09T22:39:51.516Z,0.53
2023-12-09T22:42:18.666Z,1.03
2023-12-09T22:44:46.163Z,0.70
2023-12-09T22:47:14.626Z,0.63
2023-12-09T22:49:42.224Z,0.93
2023-12-09T22:52:09.786Z,0.63
2023-12-09T22:54:37.330Z,0.90
2023-12-09T22:57:09.705Z,0.90
2023-12-09T22:59:37.366Z,0.80
2023-12-09T23:02:06.474Z,0.70
2023-12-09T23:04:33.993Z,0.50
2023-12-09T23:07:01.547Z,0.60
2023-12-09T23:09:29.165Z,0.60
2023-12-09T23:11:56.686Z,0.50
2023-12-09T23:14:24.157Z,0.50
2023-12-09T23:16:51.704Z,0.40
2023-12-09T23:19:19.259Z,0.47
2023-12-09T23:21:46.876Z,0.60
2023-12-09T23:24:14.771Z,0.40
2023-12-09T23:26:42.285Z,0.53
2023-12-09T23:29:10.109Z,0.60
2023-12-09T23:31:41.666Z,0.70
2023-12-09T23:34:10.569Z,0.93
2023-12-09T23:36:38.304Z,0.67
2023-12-09T23:39:06.116Z,0.70
2023-12-09T23:41:33.629Z,0.70
2023-12-09T23:44:01.088Z,0.50
2023-12-09T23:46:28.559Z,1.23
2023-12-09T23:48:57.142Z,1.30
2023-12-09T23:51:24.914Z,1.97
2023-12-09T23:53:52.542Z,1.20
2023-12-09T23:56:24.911Z,2.07
2023-12-09T23:58:52.492Z,2.17
